Time;durP1;ratioP1;P1;durP2;ratioP2;P2;SDS_P1;SDS_P2;PMS_P1;PMS_P2;Temp;Humidity;BMP_temperature;BMP_pressure;BME280_temperature;BME280_humidity;BME280_pressure;Samples;Min_cycle;Max_cycle;Signal;HPM_P1;HPM_P2
2023/05/16 00:00:13;;;;;;;8.80;0.90;;;14.10;94.40;;;;;;5108269;28;20035;-78
2023/05/16 00:02:40;;;;;;;13.63;1.90;;;14.20;94.20;;;;;;5078513;28;20366;-78
2023/05/16 00:05:15;;;;;;;9.38;1.30;;;14.20;94.00;;;;;;5078779;28;20048;-78
2023/05/16 00:07:46;;;;;;;9.68;1.42;;;14.20;93.90;;;;;;5078307;28;20028;-78
2023/05/16 00:10:12;;;;;;;8.25;1.00;;;14.20;94.10;;;;;;5096671;28;20047;-77
2023/05/16 00:12:38;;;;;;;6.43;1.10;;;14.30;94.20;;;;;;5078427;28;20031;-77
2023/05/16 00:15:07;;;;;;;9.73;1.63;;;14.30;93.60;;;;;;5096334;28;20448;-76
2023/05/16 00:17:34;;;;;;;13.48;1.67;;;14.20;93.30;;;;;;5096400;28;20024;-77
2023/05/16 00:20:01;;;;;;;12.13;1.42;;;14.20;93.20;;;;;;5096204;28;20032;-77
2023/05/16 00:22:27;;;;;;;7.15;1.23;;;14.10;93.10;;;;;;5096303;28;20024;-77
2023/05/16 00:24:53;;;;;;;11.82;1.50;;;14.00;93.00;;;;;;5095928;28;20024;-77
2023/05/16 00:27:18;;;;;;;12.48;1.50;;;13.90;93.30;;;;;;5078071;28;20123;-77
2023/05/16 00:29:44;;;;;;;12.82;1.52;;;13.90;93.00;;;;;;5078101;28;20031;-77
2023/05/16 00:32:10;;;;;;;12.35;1.60;;;13.90;92.70;;;;;;5095961;28;20034;-77
2023/05/16 00:34:35;;;;;;;8.65;1.30;;;13.80;93.10;;;;;;5096452;28;20384;-77
2023/05/16 00:37:01;;;;;;;7.55;1.50;;;13.70;93.00;;;;;;5077299;28;20044;-77
2023/05/16 00:39:27;;;;;;;12.65;1.67;;;13.80;93.20;;;;;;5096335;28;20032;-77
2023/05/16 00:41:53;;;;;;;12.40;1.70;;;13.80;93.10;;;;;;5094796;28;20060;-77
2023/05/16 00:44:19;;;;;;;6.22;1.08;;;13.70;92.70;;;;;;5077503;28;20467;-77
2023/05/16 00:46:45;;;;;;;7.80;1.13;;;13.70;93.40;;;;;;5077828;28;20094;-77
2023/05/16 00:49:11;;;;;;;11.73;1.50;;;13.80;93.40;;;;;;5061353;28;20028;-76
2023/05/16 00:51:38;;;;;;;7.80;1.05;;;13.80;92.90;;;;;;5095392;28;20024;-77
2023/05/16 00:54:04;;;;;;;13.23;1.30;;;13.90;93.00;;;;;;5095789;28;20029;-76
2023/05/16 00:56:30;;;;;;;9.63;2.13;;;14.00;92.90;;;;;;5076612;28;20044;-77
2023/05/16 00:58:56;;;;;;;10.88;0.95;;;13.90;92.30;;;;;;5095619;28;20177;-77
2023/05/16 01:01:24;;;;;;;8.90;1.08;;;13.90;92.80;;;;;;5095266;28;20107;-77
2023/05/16 01:03:51;;;;;;;13.35;1.30;;;14.00;92.80;;;;;;5095359;28;20077;-77
2023/05/16 01:06:16;;;;;;;9.50;1.00;;;13.80;92.10;;;;;;5077434;28;20066;-77
2023/05/16 01:08:42;;;;;;;12.50;1.60;;;13.70;92.30;;;;;;5077268;28;20112;-77
2023/05/16 01:11:46;;;;;;;12.05;1.50;;;13.80;92.00;;;;;;5095439;28;20024;-76
2023/05/16 01:14:32;;;;;;;5.82;0.73;;;13.60;92.10;;;;;;5038984;28;20039;-77
2023/05/16 01:17:13;;;;;;;11.55;1.52;;;13.70;92.70;;;;;;5094405;28;20048;-77
2023/05/16 01:20:14;;;;;;;14.18;1.50;;;13.80;92.00;;;;;;5077212;28;20050;-77
2023/05/16 01:22:46;;;;;;;9.27;1.08;;;13.80;92.60;;;;;;5077045;28;20028;-77
2023/05/16 01:25:36;;;;;;;11.27;1.17;;;13.70;92.10;;;;;;5094531;28;20024;-77
2023/05/16 01:28:03;;;;;;;10.35;0.98;;;13.80;92.00;;;;;;5095003;28;20078;-77
2023/05/16 01:30:35;;;;;;;9.05;1.30;;;13.80;92.10;;;;;;5095046;28;20028;-77
2023/05/16 01:33:02;;;;;;;11.63;1.52;;;13.60;91.60;;;;;;5094722;28;20044;-77
2023/05/16 01:35:28;;;;;;;6.65;0.75;;;13.60;92.10;;;;;;5076729;28;20086;-77
2023/05/16 01:38:12;;;;;;;4.40;0.63;;;13.50;92.10;;;;;;5094666;28;20028;-77
2023/05/16 01:40:52;;;;;;;6.05;0.80;;;13.60;92.80;;;;;;5094910;28;20038;-77
2023/05/16 01:43:29;;;;;;;5.97;0.68;;;13.80;93.10;;;;;;5076672;28;20031;-77
2023/05/16 01:46:03;;;;;;;9.73;0.90;;;13.90;93.20;;;;;;5094914;28;20020;-77
2023/05/16 01:48:36;;;;;;;10.23;0.70;;;13.80;91.90;;;;;;5093605;28;20085;-77
2023/05/16 01:51:02;;;;;;;9.75;0.98;;;13.90;92.30;;;;;;5094377;28;20519;-77
2023/05/16 01:53:38;;;;;;;6.97;0.65;;;14.00;92.40;;;;;;5094591;28;20052;-77
2023/05/16 01:56:06;;;;;;;9.43;0.93;;;14.10;92.60;;;;;;5094105;28;20041;-77
2023/05/16 01:58:33;;;;;;;10.43;1.40;;;14.20;92.50;;;;;;5094447;28;20039;-77
2023/05/16 02:01:04;;;;;;;8.43;0.82;;;14.20;92.00;;;;;;5093978;28;20545;-77
2023/05/16 02:03:30;;;;;;;4.60;0.75;;;14.20;92.40;;;;;;5094463;28;20028;-77
2023/05/16 02:05:56;;;;;;;8.48;1.00;;;14.30;92.20;;;;;;5094347;28;20036;-77
2023/05/16 02:08:23;;;;;;;7.60;0.70;;;14.30;91.50;;;;;;5094307;28;20043;-77
2023/05/16 02:10:49;;;;;;;5.43;1.05;;;14.30;91.70;;;;;;5094225;28;20111;-77
2023/05/16 02:13:15;;;;;;;10.75;1.90;;;14.40;92.20;;;;;;5094013;28;20136;-77
2023/05/16 02:15:40;;;;;;;10.80;1.65;;;14.40;91.90;;;;;;5093876;28;20036;-77
2023/05/16 02:18:06;;;;;;;12.25;0.88;;;14.20;90.80;;;;;;5094211;28;20024;-77
2023/05/16 02:20:32;;;;;;;6.72;1.00;;;14.20;91.50;;;;;;5093960;28;20024;-77
2023/05/16 02:22:58;;;;;;;5.15;0.57;;;14.30;91.80;;;;;;5093995;28;20036;-77
2023/05/16 02:25:23;;;;;;;4.57;1.38;;;14.30;92.10;;;;;;5093651;28;20040;-77
2023/05/16 02:27:49;;;;;;;4.35;0.70;;;14.30;91.80;;;;;;5076161;28;20393;-76
2023/05/16 02:30:14;;;;;;;9.15;1.10;;;14.30;91.80;;;;;;5093887;28;20032;-76
2023/05/16 02:32:43;;;;;;;9.05;0.82;;;14.40;90.70;;;;;;5093720;28;20024;-76
2023/05/16 02:35:09;;;;;;;8.55;0.90;;;14.30;90.90;;;;;;5093913;28;20461;-76
2023/05/16 02:37:35;;;;;;;9.80;0.95;;;14.30;90.90;;;;;;5093874;28;20047;-77
2023/05/16 02:40:01;;;;;;;8.52;0.70;;;14.30;91.10;;;;;;5093829;28;20384;-77
2023/05/16 02:42:28;;;;;;;7.18;0.60;;;14.20;91.00;;;;;;5093866;28;20032;-77
2023/05/16 02:44:53;;;;;;;8.85;1.35;;;14.30;91.20;;;;;;5094023;28;20028;-76
2023/05/16 02:47:19;;;;;;;7.30;0.70;;;14.30;91.00;;;;;;5093855;28;20387;-77
2023/05/16 02:49:45;;;;;;;10.43;0.98;;;14.20;91.10;;;;;;5093679;28;20027;-77
2023/05/16 02:52:12;;;;;;;6.32;1.10;;;14.20;91.00;;;;;;5093349;28;20124;-77
2023/05/16 02:54:37;;;;;;;10.98;2.05;;;14.20;91.00;;;;;;5075240;28;20440;-77
2023/05/16 02:57:03;;;;;;;10.95;0.98;;;14.20;90.60;;;;;;5093540;28;20071;-77
2023/05/16 02:59:29;;;;;;;10.15;0.90;;;14.10;90.70;;;;;;5094246;28;20032;-76
2023/05/16 03:01:54;;;;;;;11.25;1.38;;;14.00;90.50;;;;;;5100185;28;20185;-76
2023/05/16 03:04:21;;;;;;;10.00;1.17;;;14.00;90.70;;;;;;5082413;28;20028;-76
2023/05/16 03:06:46;;;;;;;5.53;0.80;;;13.80;90.50;;;;;;5100286;28;20476;-77
2023/05/16 03:09:12;;;;;;;9.68;0.80;;;13.80;90.70;;;;;;5082358;28;20028;-76
2023/05/16 03:11:38;;;;;;;6.68;0.90;;;13.80;90.90;;;;;;5100277;28;20032;-77
2023/05/16 03:14:04;;;;;;;6.88;0.95;;;13.80;91.00;;;;;;5082295;28;20035;-77
2023/05/16 03:16:30;;;;;;;4.85;0.70;;;13.70;90.70;;;;;;5099964;28;20538;-77
2023/05/16 03:18:55;;;;;;;9.30;0.80;;;13.50;91.00;;;;;;5100241;28;20028;-77
2023/05/16 03:21:21;;;;;;;5.13;0.77;;;13.60;91.50;;;;;;5100270;28;20135;-77
2023/05/16 03:23:47;;;;;;;5.60;0.80;;;13.60;91.70;;;;;;5100251;28;20024;-77
2023/05/16 03:26:12;;;;;;;11.43;1.83;;;13.70;91.90;;;;;;5099665;28;20067;-77
2023/05/16 03:28:38;;;;;;;5.72;0.50;;;13.70;91.20;;;;;;5081900;28;20024;-77
2023/05/16 03:31:04;;;;;;;7.47;1.02;;;13.70;91.60;;;;;;5099860;28;20059;-75
2023/05/16 03:33:29;;;;;;;6.10;0.70;;;13.70;91.60;;;;;;5082143;28;20036;-77
2023/05/16 03:35:55;;;;;;;11.65;1.30;;;13.80;91.50;;;;;;5100203;28;20049;-77
2023/05/16 03:38:21;;;;;;;5.10;0.90;;;13.80;91.30;;;;;;5100004;28;20040;-77
2023/05/16 03:40:46;;;;;;;8.75;1.00;;;13.70;91.50;;;;;;5099768;28;20024;-77
2023/05/16 03:43:12;;;;;;;7.43;0.60;;;13.70;91.40;;;;;;5099846;28;20035;-77
2023/05/16 03:45:37;;;;;;;6.07;0.85;;;13.80;91.70;;;;;;5099872;28;20036;-77
2023/05/16 03:48:03;;;;;;;4.35;0.60;;;13.80;91.50;;;;;;5081885;28;20028;-77
2023/05/16 03:50:29;;;;;;;7.95;0.65;;;13.80;91.00;;;;;;5065245;28;20039;-77
2023/05/16 03:52:55;;;;;;;8.88;0.82;;;13.80;91.20;;;;;;5099910;28;20028;-77
2023/05/16 03:55:21;;;;;;;16.85;1.10;;;13.80;90.80;;;;;;5099009;28;20052;-77
2023/05/16 03:57:48;;;;;;;10.25;1.20;;;13.70;90.70;;;;;;5099671;28;20028;-77
2023/05/16 04:00:14;;;;;;;7.00;1.05;;;13.60;90.70;;;;;;5065374;28;20388;-76
2023/05/16 04:02:40;;;;;;;8.52;1.25;;;13.50;90.90;;;;;;5099853;28;20460;-76
2023/05/16 04:05:10;;;;;;;7.90;0.88;;;13.50;91.00;;;;;;5099652;28;20039;-76
2023/05/16 04:07:36;;;;;;;6.72;0.60;;;13.60;91.30;;;;;;5099662;28;20024;-76
2023/05/16 04:10:03;;;;;;;7.38;0.70;;;13.60;91.10;;;;;;5099685;28;20031;-76
2023/05/16 04:12:29;;;;;;;7.35;0.70;;;13.60;91.40;;;;;;5096414;28;20040;-77
2023/05/16 04:14:55;;;;;;;6.63;0.70;;;13.70;91.40;;;;;;5096471;28;20041;-75
2023/05/16 04:17:20;;;;;;;6.90;0.75;;;13.70;91.30;;;;;;5096189;28;20036;-76
2023/05/16 04:19:46;;;;;;;6.82;0.82;;;13.70;91.20;;;;;;5061253;28;20040;-76
2023/05/16 04:22:11;;;;;;;9.73;0.90;;;13.60;91.30;;;;;;5096365;28;20152;-76
2023/05/16 04:24:37;;;;;;;5.90;0.80;;;13.60;91.40;;;;;;5077602;28;20067;-76
2023/05/16 04:27:03;;;;;;;12.30;1.65;;;13.60;91.30;;;;;;5078321;28;20044;-77
2023/05/16 04:29:31;;;;;;;7.93;1.35;;;13.50;91.20;;;;;;5095816;28;20127;-76
2023/05/16 04:31:56;;;;;;;9.38;0.90;;;13.50;91.40;;;;;;5096213;28;20024;-77
2023/05/16 04:34:26;;;;;;;7.68;0.73;;;13.50;91.60;;;;;;5077866;28;20032;-76
2023/05/16 04:36:52;;;;;;;4.93;0.63;;;13.50;91.80;;;;;;5096064;28;20036;-76
2023/05/16 04:39:18;;;;;;;7.90;0.90;;;13.60;91.80;;;;;;5077941;28;20085;-76
2023/05/16 04:41:44;;;;;;;6.95;1.08;;;13.60;91.80;;;;;;5077723;28;20114;-76
2023/05/16 04:44:10;;;;;;;9.55;1.30;;;13.60;91.60;;;;;;5077816;28;20028;-76
2023/05/16 04:46:36;;;;;;;6.90;0.52;;;13.50;91.80;;;;;;5077938;28;20119;-76
2023/05/16 04:49:01;;;;;;;5.65;0.85;;;13.50;91.40;;;;;;5077729;28;20159;-75
2023/05/16 04:51:27;;;;;;;6.78;1.20;;;13.60;91.60;;;;;;5077566;28;20384;-77
2023/05/16 04:53:53;;;;;;;5.25;0.60;;;13.60;91.90;;;;;;5077274;28;20028;-76
2023/05/16 04:56:19;;;;;;;8.13;1.05;;;13.60;91.70;;;;;;5094702;28;20056;-76
2023/05/16 04:58:45;;;;;;;7.38;0.63;;;13.60;91.80;;;;;;5095631;28;20024;-76
2023/05/16 05:01:10;;;;;;;7.97;0.90;;;13.70;91.80;;;;;;5095469;28;20403;-76
2023/05/16 05:03:36;;;;;;;7.13;0.93;;;13.70;91.70;;;;;;5095519;28;20032;-76
2023/05/16 05:06:02;;;;;;;8.48;0.80;;;13.70;91.40;;;;;;5095182;28;20036;-76
2023/05/16 05:08:28;;;;;;;4.63;1.10;;;13.60;91.30;;;;;;5095419;28;20024;-76
2023/05/16 05:10:57;;;;;;;7.82;0.80;;;13.50;91.30;;;;;;5077357;28;20464;-76
2023/05/16 05:13:23;;;;;;;8.55;1.25;;;13.50;91.50;;;;;;5076946;28;20499;-76
2023/05/16 05:15:50;;;;;;;13.95;1.70;;;13.50;91.60;;;;;;5076826;28;20044;-76
2023/05/16 05:18:17;;;;;;;9.38;1.33;;;13.50;91.50;;;;;;5060713;28;20071;-76
2023/05/16 05:20:43;;;;;;;8.05;1.23;;;13.40;91.40;;;;;;5094799;28;20111;-76
2023/05/16 05:23:08;;;;;;;8.75;1.00;;;13.30;91.40;;;;;;5094636;28;20059;-76
2023/05/16 05:25:35;;;;;;;7.05;0.90;;;13.20;91.50;;;;;;5076645;28;20488;-76
2023/05/16 05:28:01;;;;;;;8.15;0.75;;;13.20;91.70;;;;;;5076582;28;20526;-76
2023/05/16 05:30:27;;;;;;;8.70;0.80;;;13.30;91.70;;;;;;5076855;28;20028;-77
2023/05/16 05:32:53;;;;;;;7.82;0.73;;;13.40;91.70;;;;;;5095084;28;20029;-76
2023/05/16 05:35:19;;;;;;;7.00;0.65;;;13.40;91.70;;;;;;5076640;28;20032;-76
2023/05/16 05:37:45;;;;;;;10.73;0.80;;;13.40;91.70;;;;;;5076424;28;20036;-76
2023/05/16 05:40:11;;;;;;;8.27;1.33;;;13.40;91.40;;;;;;5094672;28;20035;-76
2023/05/16 05:42:37;;;;;;;9.90;1.20;;;13.40;91.40;;;;;;5094707;28;20028;-76
2023/05/16 05:45:03;;;;;;;7.35;1.63;;;13.30;91.40;;;;;;5076683;28;20040;-76
2023/05/16 05:47:29;;;;;;;8.73;1.08;;;13.30;91.40;;;;;;5094539;28;20380;-76
2023/05/16 05:49:55;;;;;;;5.22;0.77;;;13.20;91.50;;;;;;5076296;28;20111;-76
2023/05/16 05:52:21;;;;;;;12.75;0.85;;;13.20;91.70;;;;;;5093999;28;20031;-76
2023/05/16 05:54:47;;;;;;;12.82;1.35;;;13.20;91.80;;;;;;5075486;28;20493;-75
2023/05/16 05:57:13;;;;;;;11.27;1.38;;;13.20;91.70;;;;;;5093969;28;20032;-78
2023/05/16 05:59:38;;;;;;;11.80;1.08;;;13.20;91.70;;;;;;5059540;28;20491;-76
2023/05/16 06:02:04;;;;;;;8.48;1.05;;;13.10;91.50;;;;;;5093839;28;20055;-76
2023/05/16 06:04:30;;;;;;;11.70;1.63;;;13.10;91.50;;;;;;5076097;28;20028;-74
2023/05/16 06:06:55;;;;;;;9.18;1.10;;;13.10;91.70;;;;;;5076258;28;20032;-74
2023/05/16 06:09:21;;;;;;;6.80;1.02;;;13.00;91.80;;;;;;5094126;28;20503;-74
2023/05/16 06:11:47;;;;;;;7.43;0.90;;;13.00;92.10;;;;;;5094119;28;20031;-73
2023/05/16 06:14:14;;;;;;;7.93;1.17;;;13.00;92.10;;;;;;5093672;28;20028;-74
2023/05/16 06:16:40;;;;;;;9.07;1.40;;;13.10;92.20;;;;;;5075366;28;20036;-74
2023/05/16 06:19:06;;;;;;;7.18;0.80;;;13.20;92.30;;;;;;5094018;28;20350;-74
2023/05/16 06:21:33;;;;;;;5.40;0.82;;;13.20;92.20;;;;;;5059042;28;20035;-74
2023/05/16 06:23:58;;;;;;;8.32;1.00;;;13.40;92.20;;;;;;5093870;28;20119;-75
2023/05/16 06:26:24;;;;;;;8.65;1.20;;;13.40;92.10;;;;;;5075249;28;20155;-74
2023/05/16 06:28:50;;;;;;;6.57;1.00;;;13.50;91.80;;;;;;5093805;28;20028;-74
2023/05/16 06:31:15;;;;;;;7.03;1.33;;;13.50;91.70;;;;;;5075620;28;20082;-74
2023/05/16 06:33:41;;;;;;;11.23;1.20;;;13.50;92.00;;;;;;5075754;28;20036;-74
2023/05/16 06:36:07;;;;;;;8.27;1.15;;;13.50;91.90;;;;;;5074876;28;20044;-74
2023/05/16 06:38:32;;;;;;;12.05;1.70;;;13.40;91.70;;;;;;5093307;28;20357;-74
2023/05/16 06:40:58;;;;;;;10.13;1.02;;;13.40;92.00;;;;;;5093285;28;20024;-74
2023/05/16 06:43:24;;;;;;;9.57;1.63;;;13.40;92.20;;;;;;5093694;28;20028;-74
2023/05/16 06:45:49;;;;;;;9.82;1.10;;;13.50;92.00;;;;;;5093734;28;20028;-73
2023/05/16 06:48:17;;;;;;;8.30;1.13;;;13.60;92.00;;;;;;5093475;28;20034;-74
2023/05/16 06:50:52;;;;;;;8.05;1.35;;;13.70;92.00;;;;;;5093573;28;20417;-74
2023/05/16 06:53:18;;;;;;;10.10;1.35;;;13.80;92.00;;;;;;5093467;28;20101;-74
2023/05/16 06:55:44;;;;;;;11.15;1.30;;;13.70;92.30;;;;;;5074269;28;20488;-74
2023/05/16 06:58:10;;;;;;;7.72;1.17;;;13.80;92.50;;;;;;5074625;28;20087;-75
2023/05/16 07:00:35;;;;;;;9.90;1.00;;;13.90;92.80;;;;;;5074840;28;20564;-74
2023/05/16 07:03:02;;;;;;;9.13;1.23;;;14.00;92.70;;;;;;5093370;28;20114;-75
2023/05/16 07:05:28;;;;;;;9.85;1.13;;;14.20;92.70;;;;;;5093397;28;20031;-75
2023/05/16 07:07:54;;;;;;;7.38;1.23;;;14.30;91.90;;;;;;5075337;28;20024;-75
2023/05/16 07:10:20;;;;;;;10.55;0.80;;;14.30;91.40;;;;;;5093456;28;20086;-75
2023/05/16 07:12:47;;;;;;;8.60;0.73;;;14.40;90.40;;;;;;5075206;28;20040;-74
2023/05/16 07:15:13;;;;;;;8.32;0.90;;;14.40;90.60;;;;;;5092982;28;20036;-75
2023/05/16 07:17:39;;;;;;;8.60;0.95;;;14.50;90.40;;;;;;5074945;28;20040;-76
2023/05/16 07:20:05;;;;;;;4.55;0.43;;;14.60;89.20;;;;;;5075271;28;20024;-76
2023/05/16 07:22:31;;;;;;;6.28;0.70;;;14.60;86.80;;;;;;5093483;28;20024;-76
2023/05/16 07:24:59;;;;;;;5.32;0.55;;;14.40;86.40;;;;;;5092539;28;20392;-77
2023/05/16 07:27:26;;;;;;;4.05;0.55;;;14.30;86.20;;;;;;5093184;28;20067;-76
2023/05/16 07:29:52;;;;;;;13.02;1.35;;;14.30;86.30;;;;;;5058225;28;20060;-75
2023/05/16 07:32:18;;;;;;;4.53;0.60;;;14.20;86.40;;;;;;5075366;28;20055;-75
2023/05/16 07:34:43;;;;;;;3.42;0.50;;;14.20;87.30;;;;;;5092663;28;20040;-76
2023/05/16 07:37:11;;;;;;;4.97;0.60;;;14.30;88.10;;;;;;5041670;28;20435;-76
2023/05/16 07:39:41;;;;;;;5.78;0.30;;;14.40;87.40;;;;;;5075143;28;20032;-76
2023/05/16 07:42:08;;;;;;;3.47;0.40;;;14.50;87.70;;;;;;5075857;28;20349;-76
2023/05/16 07:44:34;;;;;;;7.55;0.60;;;14.60;88.50;;;;;;5092806;28;20511;-74
2023/05/16 07:47:00;;;;;;;6.30;0.70;;;14.80;87.50;;;;;;5075606;28;20567;-75
2023/05/16 07:49:26;;;;;;;7.43;0.80;;;14.70;84.40;;;;;;5096669;28;20218;-77
2023/05/16 07:51:52;;;;;;;3.20;0.30;;;14.50;83.90;;;;;;5096786;28;20032;-76
2023/05/16 07:54:17;;;;;;;8.80;0.65;;;14.50;85.50;;;;;;5096899;28;20123;-77
2023/05/16 07:56:43;;;;;;;3.55;0.30;;;14.60;85.10;;;;;;5074556;28;20373;-77
2023/05/16 07:59:09;;;;;;;2.85;0.40;;;14.60;84.20;;;;;;5076402;28;20035;-77
2023/05/16 08:01:35;;;;;;;4.90;0.40;;;14.70;84.60;;;;;;5058276;28;20484;-77
2023/05/16 08:04:00;;;;;;;3.90;0.30;;;14.70;84.40;;;;;;5076310;28;20082;-76
2023/05/16 08:06:26;;;;;;;7.18;0.50;;;14.70;83.20;;;;;;5075991;28;20544;-76
2023/05/16 08:08:52;;;;;;;6.75;0.40;;;14.60;82.60;;;;;;5076104;28;20025;-76
2023/05/16 08:11:21;;;;;;;3.38;0.30;;;14.80;83.20;;;;;;5075716;28;20033;-77
2023/05/16 08:13:47;;;;;;;7.47;0.68;;;14.90;81.90;;;;;;5058029;28;20028;-76
2023/05/16 08:16:13;;;;;;;3.50;0.40;;;14.90;81.30;;;;;;5041460;28;20495;-77
2023/05/16 08:18:38;;;;;;;6.95;0.73;;;14.90;81.40;;;;;;5058206;28;20032;-77
2023/05/16 08:21:04;;;;;;;4.38;0.30;;;14.90;81.30;;;;;;5058055;28;20099;-77
2023/05/16 08:23:30;;;;;;;3.88;0.47;;;14.90;81.40;;;;;;5076027;28;20098;-77
2023/05/16 08:25:56;;;;;;;5.05;0.25;;;14.90;81.60;;;;;;5057752;28;20082;-77
2023/05/16 08:28:21;;;;;;;3.83;0.57;;;14.90;81.90;;;;;;5057787;28;20029;-77
2023/05/16 08:30:47;;;;;;;5.35;0.43;;;14.80;82.50;;;;;;5075640;28;20124;-77
2023/05/16 08:33:12;;;;;;;6.38;0.60;;;14.80;82.90;;;;;;5075797;28;20044;-77
2023/05/16 08:35:42;;;;;;;4.25;0.43;;;14.70;82.90;;;;;;5075716;28;20040;-77
2023/05/16 08:38:08;;;;;;;5.10;0.40;;;14.60;83.40;;;;;;5075828;28;20024;-77
2023/05/16 08:40:34;;;;;;;7.63;0.55;;;14.80;83.90;;;;;;5057682;28;20031;-77
2023/05/16 08:43:00;;;;;;;5.18;1.02;;;14.90;84.70;;;;;;5075567;28;20058;-76
2023/05/16 08:45:26;;;;;;;4.93;0.40;;;15.10;84.60;;;;;;5075591;28;20033;-77
2023/05/16 08:47:55;;;;;;;4.80;0.30;;;15.10;81.50;;;;;;5057662;28;20033;-77
2023/05/16 08:50:21;;;;;;;2.75;0.60;;;15.10;81.30;;;;;;5057618;28;20028;-77
2023/05/16 08:52:51;;;;;;;3.42;0.20;;;15.10;81.30;;;;;;5075552;28;20477;-75
2023/05/16 08:55:20;;;;;;;4.22;0.40;;;15.20;82.50;;;;;;5061770;28;20134;-74
2023/05/16 08:57:48;;;;;;;4.10;0.30;;;15.40;82.50;;;;;;5074890;28;20392;-74
2023/05/16 09:00:14;;;;;;;2.38;0.28;;;15.50;80.00;;;;;;5075264;28;20088;-75
2023/05/16 09:02:41;;;;;;;2.20;0.17;;;15.70;80.00;;;;;;5075244;28;20028;-74
2023/05/16 09:05:12;;;;;;;2.78;0.30;;;16.00;80.20;;;;;;5075187;28;20029;-74
2023/05/16 09:07:38;;;;;;;3.08;0.40;;;16.10;77.10;;;;;;5075128;28;20033;-74
2023/05/16 09:10:05;;;;;;;2.17;0.20;;;16.30;76.50;;;;;;5075489;28;20024;-75
2023/05/16 09:12:32;;;;;;;2.42;0.45;;;16.30;76.70;;;;;;5074014;28;20041;-76
2023/05/16 09:15:01;;;;;;;2.95;0.30;;;16.30;75.40;;;;;;5074994;28;20053;-75
2023/05/16 09:17:35;;;;;;;4.05;0.30;;;16.50;76.20;;;;;;5057144;28;20043;-74
2023/05/16 09:20:08;;;;;;;4.40;1.00;;;16.50;75.00;;;;;;5074764;28;20021;-75
2023/05/16 09:22:33;;;;;;;4.05;0.30;;;16.40;75.90;;;;;;5056987;28;20029;-75
2023/05/16 09:24:59;;;;;;;3.90;0.30;;;16.40;75.20;;;;;;5056388;28;20426;-74
2023/05/16 09:27:25;;;;;;;3.78;0.30;;;16.30;75.70;;;;;;5074894;28;20120;-74
2023/05/16 09:29:51;;;;;;;2.88;0.20;;;16.20;74.60;;;;;;5056713;28;20385;-74
2023/05/16 09:32:17;;;;;;;3.42;0.38;;;15.90;74.70;;;;;;5074559;28;20115;-74
2023/05/16 09:34:50;;;;;;;3.75;0.35;;;15.70;76.30;;;;;;5074563;28;20056;-74
2023/05/16 09:37:19;;;;;;;3.95;0.30;;;15.50;77.20;;;;;;5074228;28;20033;-74
2023/05/16 09:39:46;;;;;;;3.47;0.20;;;15.30;76.60;;;;;;5040333;28;20387;-74
2023/05/16 09:42:13;;;;;;;3.58;0.47;;;15.10;78.00;;;;;;5074879;28;20112;-77
2023/05/16 09:44:39;;;;;;;5.47;0.47;;;15.10;78.90;;;;;;5056449;28;20037;-77
2023/05/16 09:47:05;;;;;;;3.80;0.20;;;15.40;81.50;;;;;;5056589;28;20028;-75
2023/05/16 09:49:31;;;;;;;3.33;0.30;;;15.70;81.30;;;;;;5039979;28;20493;-75
2023/05/16 09:52:01;;;;;;;5.28;0.43;;;15.90;79.20;;;;;;5056385;28;20029;-74
2023/05/16 09:54:34;;;;;;;3.50;0.40;;;16.00;79.00;;;;;;5073908;28;20076;-74
2023/05/16 09:57:00;;;;;;;5.35;0.35;;;16.00;78.70;;;;;;5074718;28;20392;-75
2023/05/16 09:59:29;;;;;;;4.35;1.00;;;16.10;77.10;;;;;;5094258;28;20031;-74
2023/05/16 10:01:58;;;;;;;4.72;0.20;;;16.00;75.00;;;;;;5076147;28;20426;-74
2023/05/16 10:04:24;;;;;;;1.50;0.28;;;16.00;75.30;;;;;;5094368;28;20031;-75
2023/05/16 10:06:51;;;;;;;5.80;0.50;;;16.00;75.70;;;;;;5076272;28;20119;-74
2023/05/16 10:09:17;;;;;;;2.90;0.30;;;16.10;75.90;;;;;;5093591;28;20036;-74
2023/05/16 10:11:45;;;;;;;1.75;0.30;;;16.30;74.80;;;;;;5058959;28;20024;-74
2023/05/16 10:14:12;;;;;;;2.88;0.40;;;16.60;72.00;;;;;;5093977;28;20078;-75
2023/05/16 10:16:42;;;;;;;5.57;0.45;;;16.80;70.60;;;;;;5093667;28;20067;-75
2023/05/16 10:19:08;;;;;;;3.80;0.40;;;16.60;69.10;;;;;;5075876;28;20040;-75
2023/05/16 10:21:36;;;;;;;9.48;0.43;;;16.30;70.70;;;;;;5093859;28;20039;-74
2023/05/16 10:24:05;;;;;;;3.30;0.43;;;16.20;71.30;;;;;;5093714;28;20028;-74
2023/05/16 10:26:32;;;;;;;5.10;0.47;;;16.10;72.60;;;;;;5093776;28;20412;-75
2023/05/16 10:29:01;;;;;;;5.68;0.30;;;16.10;73.80;;;;;;5075508;28;20032;-75
2023/05/16 10:31:28;;;;;;;6.10;0.57;;;16.30;74.40;;;;;;5075735;28;20050;-74
2023/05/16 10:33:55;;;;;;;6.32;0.30;;;16.60;75.90;;;;;;5093740;28;20032;-75
2023/05/16 10:36:22;;;;;;;4.68;0.30;;;16.90;73.80;;;;;;5093694;28;20052;-75
2023/05/16 10:38:48;;;;;;;4.40;0.45;;;17.00;71.10;;;;;;5075488;28;20119;-75
2023/05/16 10:41:14;;;;;;;2.97;0.77;;;17.00;68.70;;;;;;5093600;28;20020;-74
2023/05/16 10:43:45;;;;;;;5.55;0.43;;;17.10;69.60;;;;;;5093782;28;20069;-74
2023/05/16 10:46:11;;;;;;;4.22;0.73;;;17.20;69.40;;;;;;5093792;28;20020;-74
2023/05/16 10:48:38;;;;;;;3.50;0.30;;;17.40;67.00;;;;;;5093765;28;20028;-75
2023/05/16 10:51:22;;;;;;;3.58;0.40;;;17.50;67.10;;;;;;5075336;28;20028;-75
2023/05/16 10:53:54;;;;;;;3.50;0.40;;;17.70;67.00;;;;;;5075550;28;20520;-75
2023/05/16 10:56:25;;;;;;;4.18;0.40;;;17.60;66.50;;;;;;5074667;28;20134;-75
2023/05/16 10:58:53;;;;;;;6.00;0.50;;;17.50;67.20;;;;;;5093494;28;20039;-75
2023/05/16 11:01:23;;;;;;;4.97;0.38;;;17.30;67.70;;;;;;5093255;28;20039;-75
2023/05/16 11:04:01;;;;;;;3.30;0.30;;;17.10;67.50;;;;;;5075091;28;20491;-75
2023/05/16 11:06:34;;;;;;;2.75;0.50;;;17.10;69.50;;;;;;5093427;28;20028;-75
2023/05/16 11:09:09;;;;;;;6.75;0.40;;;17.30;71.00;;;;;;5093353;28;20029;-75
2023/05/16 11:11:45;;;;;;;3.60;0.32;;;17.60;69.50;;;;;;5093126;28;20020;-75
2023/05/16 11:14:33;;;;;;;1.77;0.30;;;17.50;67.20;;;;;;5093575;28;20036;-75
2023/05/16 11:17:07;;;;;;;3.63;0.25;;;17.40;65.10;;;;;;5093281;28;20044;-75
2023/05/16 11:19:33;;;;;;;3.00;0.30;;;17.50;66.00;;;;;;5093380;28;20051;-75
2023/05/16 11:22:23;;;;;;;1.65;0.20;;;17.50;65.10;;;;;;5096084;28;20456;-76
2023/05/16 11:24:56;;;;;;;1.73;0.20;;;17.50;64.10;;;;;;5089335;28;20052;-75
2023/05/16 11:27:40;;;;;;;2.25;0.40;;;17.50;64.90;;;;;;5097550;28;20038;-75
2023/05/16 11:30:06;;;;;;;5.57;0.50;;;17.60;65.60;;;;;;5097137;28;20032;-75
2023/05/16 11:32:35;;;;;;;3.40;0.30;;;17.80;65.50;;;;;;5097285;28;20035;-75
2023/05/16 11:35:02;;;;;;;6.63;0.45;;;17.90;64.80;;;;;;5097396;28;20203;-75
2023/05/16 11:37:28;;;;;;;8.25;0.57;;;18.00;63.50;;;;;;5078937;28;20044;-76
2023/05/16 11:39:59;;;;;;;3.60;0.45;;;17.90;63.50;;;;;;5097059;28;20039;-75
2023/05/16 11:42:30;;;;;;;4.10;0.35;;;17.80;62.10;;;;;;5078963;28;20358;-74
2023/05/16 11:45:05;;;;;;;5.00;0.60;;;17.60;62.00;;;;;;5096667;28;20026;-75
2023/05/16 11:47:31;;;;;;;3.05;0.32;;;17.50;63.20;;;;;;5096748;28;20046;-74
2023/05/16 11:49:57;;;;;;;3.35;0.32;;;17.30;64.30;;;;;;5078628;28;20027;-75
2023/05/16 11:52:23;;;;;;;2.95;0.35;;;17.10;63.10;;;;;;5097134;28;20023;-75
2023/05/16 11:54:49;;;;;;;2.45;0.40;;;17.00;64.10;;;;;;5096053;28;20433;-75
2023/05/16 11:57:16;;;;;;;6.88;0.32;;;16.90;64.60;;;;;;5076481;28;20056;-75
2023/05/16 11:59:42;;;;;;;3.05;0.30;;;16.80;65.40;;;;;;5076232;28;20036;-75
2023/05/16 12:02:08;;;;;;;3.90;0.40;;;16.80;65.60;;;;;;5058757;28;20028;-75
2023/05/16 12:04:37;;;;;;;4.53;0.70;;;16.90;65.60;;;;;;5076108;28;20166;-75
2023/05/16 12:07:04;;;;;;;5.68;0.85;;;17.00;65.50;;;;;;5076138;28;20059;-74
2023/05/16 12:09:30;;;;;;;3.40;0.60;;;17.10;65.20;;;;;;5076161;28;20051;-76
2023/05/16 12:11:56;;;;;;;3.58;0.57;;;17.10;63.90;;;;;;5076157;28;20024;-75
2023/05/16 12:14:22;;;;;;;4.25;0.40;;;17.00;64.30;;;;;;5076054;28;20503;-75
2023/05/16 12:16:48;;;;;;;3.38;0.30;;;17.00;63.80;;;;;;5075983;28;20032;-75
2023/05/16 12:19:14;;;;;;;2.53;0.45;;;16.80;63.00;;;;;;5058639;28;20071;-74
2023/05/16 12:21:40;;;;;;;2.83;0.35;;;16.80;64.20;;;;;;5076032;28;20037;-75
2023/05/16 12:24:10;;;;;;;4.00;0.50;;;16.90;64.20;;;;;;5076054;28;20033;-75
2023/05/16 12:26:39;;;;;;;4.97;0.70;;;17.00;64.30;;;;;;5075737;28;20028;-75
2023/05/16 12:29:05;;;;;;;3.22;0.50;;;17.00;64.20;;;;;;5075617;28;20480;-75
2023/05/16 12:31:39;;;;;;;5.85;1.00;;;17.10;63.90;;;;;;5075479;28;20481;-75
2023/05/16 12:34:13;;;;;;;3.88;0.40;;;17.10;64.60;;;;;;5074687;28;20028;-74
2023/05/16 12:36:39;;;;;;;4.85;0.40;;;17.20;65.00;;;;;;5075429;28;20045;-75
2023/05/16 12:39:04;;;;;;;2.33;0.52;;;17.20;63.60;;;;;;5075275;28;20111;-75
2023/05/16 12:41:31;;;;;;;3.45;0.47;;;17.10;62.80;;;;;;5057856;28;20028;-76
2023/05/16 12:44:16;;;;;;;3.80;0.63;;;17.00;63.70;;;;;;5076053;28;20032;-75
2023/05/16 12:46:48;;;;;;;1.63;0.30;;;16.90;63.20;;;;;;5075620;28;20031;-75